Time;durP1;ratioP1;P1;durP2;ratioP2;P2;SDS_P1;SDS_P2;PMS_P1;PMS_P2;Temp;Humidity;BMP_temperature;BMP_pressure;BME280_temperature;BME280_humidity;BME280_pressure;Samples;Min_cycle;Max_cycle;Signal;HPM_P1;HPM_P2
2022/12/15 00:39:45;;;;;;;63.15;32.40;;;;;;;;;;5107064;28;20177;-87
2022/12/15 00:42:12;;;;;;;51.28;30.75;;;-6.40;1.00;;;;;;5103823;28;20800;-86
2022/12/15 00:44:39;;;;;;;73.82;32.60;;;;;;;;;;5100484;28;20265;-87
2022/12/15 00:47:06;;;;;;;56.40;32.28;;;-6.30;99.90;;;;;;5099744;28;20332;-88
2022/12/15 01:22:37;;;;;;;58.47;30.50;;;-6.10;99.90;;;;;;5118848;28;20266;-86
2022/12/15 01:25:04;;;;;;;60.17;29.02;;;;;;;;;;5117165;28;20186;-86
2022/12/15 01:27:31;;;;;;;58.28;30.75;;;;;;;;;;5117356;28;20236;-87
2022/12/15 01:29:58;;;;;;;61.38;31.67;;;;;;;;;;5117570;28;20253;-87
2022/12/15 01:32:26;;;;;;;59.25;30.13;;;-6.00;99.90;;;;;;5117420;28;20226;-87
2022/12/15 01:34:57;;;;;;;65.88;31.42;;;-6.30;1.00;;;;;;5117274;28;20212;-88
2022/12/15 01:37:24;;;;;;;55.67;27.95;;;-6.00;1.00;;;;;;5118441;28;20170;-87
2022/12/15 01:42:36;;;;;;;56.47;30.00;;;-6.20;99.90;;;;;;5118209;28;20181;-87
2022/12/15 01:45:41;;;;;;;66.65;32.15;;;-6.20;99.90;;;;;;5117162;28;20254;-86
2022/12/15 01:48:11;;;;;;;76.50;30.05;;;-6.20;1.00;;;;;;5113821;28;20264;-87
2022/12/15 01:50:44;;;;;;;55.88;29.70;;;-5.80;1.00;;;;;;5099540;28;20269;-87
2022/12/15 01:53:12;;;;;;;60.83;32.70;;;-6.20;99.90;;;;;;5098654;28;20194;-87
2022/12/15 01:55:42;;;;;;;55.85;30.23;;;-6.60;1.00;;;;;;5098201;28;20202;-86
2022/12/15 01:58:12;;;;;;;63.25;33.15;;;-6.30;1.00;;;;;;5097386;28;20316;-86
2022/12/15 02:00:39;;;;;;;64.53;31.70;;;;;;;;;;5049285;28;20281;-87
2022/12/15 02:03:07;;;;;;;53.97;31.42;;;-6.20;1.00;;;;;;5098032;28;20212;-87
2022/12/15 02:05:35;;;;;;;51.83;29.52;;;-6.40;99.90;;;;;;5098162;28;20249;-87
2022/12/15 02:08:04;;;;;;;56.17;32.10;;;-6.40;1.00;;;;;;5110443;28;20230;-87
2022/12/15 02:10:43;;;;;;;65.20;33.38;;;-6.50;1.00;;;;;;5115842;28;20237;-87
2022/12/15 02:13:20;;;;;;;65.55;32.25;;;-6.60;1.00;;;;;;5116265;28;20197;-87
2022/12/15 02:15:50;;;;;;;55.85;29.70;;;-6.80;1.00;;;;;;5104694;28;20700;-87
2022/12/15 02:18:24;;;;;;;62.53;31.50;;;-6.30;1.00;;;;;;5099635;28;20309;-87
2022/12/15 02:20:55;;;;;;;55.17;28.55;;;-5.60;92.60;;;;;;5098763;28;20190;-87
2022/12/15 02:24:02;;;;;;;45.92;26.38;;;-6.40;1.00;;;;;;5104265;28;20191;-87
2022/12/15 02:27:12;;;;;;;61.00;30.13;;;-6.60;1.00;;;;;;5108653;28;20213;-88
2022/12/15 02:30:07;;;;;;;50.35;28.88;;;-7.00;1.00;;;;;;5060094;28;20201;-88
2022/12/15 02:32:42;;;;;;;47.65;27.30;;;-7.00;33.00;;;;;;5100618;28;20216;-87
2022/12/15 02:35:16;;;;;;;62.13;31.02;;;-6.50;1.00;;;;;;5100197;28;20185;-88
2022/12/15 02:37:45;;;;;;;62.70;30.67;;;-6.70;1.00;;;;;;5108468;28;20233;-87
2022/12/15 02:40:11;;;;;;;52.83;29.23;;;-6.70;1.00;;;;;;5118495;28;20202;-87
2022/12/15 02:42:43;;;;;;;59.35;30.48;;;-6.80;1.00;;;;;;5118547;28;20202;-87
2022/12/15 02:45:13;;;;;;;53.53;29.02;;;-6.80;1.00;;;;;;5118684;28;20225;-87
2022/12/15 02:47:47;;;;;;;53.03;29.92;;;-7.00;1.00;;;;;;5118632;28;20229;-86
2022/12/15 02:50:28;;;;;;;52.38;28.40;;;-6.80;1.00;;;;;;5118573;28;20171;-86
2022/12/15 02:53:05;;;;;;;60.35;30.17;;;-6.40;99.90;;;;;;5118792;28;20209;-86
2022/12/15 02:55:41;;;;;;;65.72;31.10;;;-6.40;99.90;;;;;;5110077;28;20182;-88
2022/12/15 02:58:14;;;;;;;57.25;28.55;;;-6.70;1.00;;;;;;5099203;28;20243;-87
2022/12/15 03:00:46;;;;;;;55.60;28.85;;;-6.60;99.90;;;;;;5097904;28;20206;-87
2022/12/15 03:03:19;;;;;;;54.42;30.33;;;-6.90;99.90;;;;;;5099167;28;20194;-86
2022/12/15 03:05:46;;;;;;;54.17;30.33;;;-6.70;99.90;;;;;;5114954;28;20211;-86
2022/12/15 03:08:13;;;;;;;56.25;31.58;;;-6.40;99.90;;;;;;5114047;28;20253;-86
2022/12/15 03:10:40;;;;;;;52.65;27.45;;;;;;;;;;5100173;28;20293;-87
2022/12/15 03:13:07;;;;;;;55.75;31.30;;;;;;;;;;5097891;28;20573;-87
2022/12/15 03:15:35;;;;;;;57.30;28.85;;;;;;;;;;5102540;28;20228;-86
2022/12/15 03:18:02;;;;;;;52.78;27.30;;;;;;;;;;5097903;28;20714;-86
2022/12/15 03:20:30;;;;;;;47.80;28.33;;;-6.80;1.00;;;;;;5101437;28;20209;-87
2022/12/15 03:22:57;;;;;;;48.83;29.33;;;;;;;;;;5100157;28;20216;-88
2022/12/15 03:25:24;;;;;;;50.97;28.88;;;;;;;;;;5100051;28;20296;-87
2022/12/15 03:27:51;;;;;;;56.30;27.58;;;-6.40;99.90;;;;;;5099997;28;20226;-87
2022/12/15 03:30:18;;;;;;;67.68;30.42;;;-7.00;99.90;;;;;;5100220;28;20209;-87
2022/12/15 03:32:45;;;;;;;55.22;28.20;;;-6.80;1.00;;;;;;5099743;28;20202;-87
2022/12/15 03:35:13;;;;;;;52.42;26.60;;;-7.30;1.00;;;;;;5099493;28;20755;-86
2022/12/15 03:37:42;;;;;;;59.30;29.17;;;-6.60;1.00;;;;;;5099379;28;20696;-87
2022/12/15 03:40:12;;;;;;;58.33;29.67;;;-7.00;1.00;;;;;;5100315;28;20198;-87
2022/12/15 03:42:48;;;;;;;56.72;27.60;;;-6.70;99.90;;;;;;5099912;28;20590;-88
2022/12/15 03:45:16;;;;;;;55.40;27.83;;;-6.80;99.90;;;;;;5099909;28;20197;-88
2022/12/15 03:47:44;;;;;;;57.15;30.63;;;;;;;;;;5100252;28;20226;-87
2022/12/15 03:50:12;;;;;;;50.65;28.55;;;-6.90;99.90;;;;;;5099547;28;20744;-87
2022/12/15 03:52:40;;;;;;;54.88;27.98;;;-7.10;99.90;;;;;;5099391;28;20672;-87
2022/12/15 03:55:08;;;;;;;45.55;25.00;;;-6.90;1.00;;;;;;5110228;28;20205;-88
2022/12/15 03:57:36;;;;;;;53.78;28.38;;;;;;;;;;5113053;28;20253;-87
2022/12/15 04:00:03;;;;;;;49.13;25.17;;;;;;;;;;5102942;28;20269;-88
2022/12/15 04:02:30;;;;;;;45.63;27.27;;;-7.20;1.00;;;;;;5100346;28;20212;-88
2022/12/15 04:04:57;;;;;;;67.10;27.65;;;-6.80;1.00;;;;;;5098614;28;20205;-88
2022/12/15 04:07:24;;;;;;;54.35;26.52;;;;;;;;;;5098738;28;20222;-87
2022/12/15 04:09:52;;;;;;;51.33;27.20;;;-7.30;1.00;;;;;;5099101;28;20215;-87
2022/12/15 04:12:19;;;;;;;50.88;27.90;;;-7.20;1.00;;;;;;5098515;28;20293;-87
2022/12/15 04:14:46;;;;;;;55.22;28.60;;;-7.30;99.90;;;;;;5105541;28;20220;-87
2022/12/15 04:17:12;;;;;;;46.53;23.15;;;-7.60;99.90;;;;;;5118178;28;20233;-87
2022/12/15 04:22:24;;;;;;;44.25;24.02;;;-7.80;99.90;;;;;;5115518;28;20200;-86
2022/12/15 05:32:01;;;;;;;41.08;18.85;;;;;;;;;;5096086;28;20189;-84
2022/12/15 05:34:29;;;;;;;30.70;18.88;;;-7.70;99.90;;;;;;5095158;28;20218;-84
2022/12/15 05:36:59;;;;;;;40.55;18.50;;;-7.80;1.00;;;;;;5096880;28;20195;-85
2022/12/15 05:39:27;;;;;;;47.85;22.35;;;-7.80;12.50;;;;;;5096721;28;20207;-84
2022/12/15 05:42:05;;;;;;;41.63;20.55;;;;;;;;;;5096549;28;20209;-85
2022/12/15 05:44:35;;;;;;;36.72;21.27;;;;;;;;;;5095899;28;20225;-86
2022/12/15 05:47:03;;;;;;;45.33;21.20;;;;;;;;;;5090157;28;20219;-85
2022/12/15 05:49:32;;;;;;;40.25;22.67;;;;;;;;;;5086982;28;20218;-85
2022/12/15 05:52:04;;;;;;;35.65;19.90;;;;;;;;;;5088712;28;20190;-85
2022/12/15 05:54:33;;;;;;;43.10;22.45;;;;;;;;;;5096777;28;20194;-84
2022/12/15 05:57:01;;;;;;;43.00;21.48;;;;;;;;;;5096820;28;20195;-84
2022/12/15 05:59:28;;;;;;;44.80;21.55;;;;;;;;;;5095986;28;20234;-84
2022/12/15 06:01:58;;;;;;;46.60;23.25;;;;;;;;;;5094896;28;20207;-85
2022/12/15 06:04:26;;;;;;;47.67;21.85;;;;;;;;;;5084221;28;20191;-84
2022/12/15 06:06:53;;;;;;;47.10;22.83;;;;;;;;;;5077533;28;20226;-85
2022/12/15 06:09:22;;;;;;;50.15;22.80;;;;;;;;;;5081255;28;20332;-84
2022/12/15 06:11:53;;;;;;;51.25;22.58;;;;;;;;;;5082348;28;20206;-85
2022/12/15 06:14:23;;;;;;;52.85;24.25;;;;;;;;;;5085758;28;20262;-86
2022/12/15 06:17:02;;;;;;;;;;;;;;;;;;;;;
2022/12/15 06:19:37;;;;;;;49.90;22.73;;;;;;;;;;5090735;28;20213;-86
2022/12/15 06:22:04;;;;;;;48.60;23.48;;;;;;;;;;5093977;28;20229;-86
2022/12/15 06:24:36;;;;;;;53.10;22.45;;;;;;;;;;5089324;28;20206;-86
2022/12/15 06:27:03;;;;;;;52.08;21.65;;;;;;;;;;5086721;28;20214;-86
2022/12/15 06:29:31;;;;;;;49.83;22.65;;;;;;;;;;5082348;28;20300;-86
2022/12/15 06:31:58;;;;;;;44.00;23.58;;;;;;;;;;5082899;28;20603;-86
2022/12/15 06:34:28;;;;;;;40.80;20.63;;;;;;;;;;5082021;28;20271;-86
2022/12/15 06:37:01;;;;;;;39.47;22.65;;;;;;;;;;5082270;28;20261;-86
2022/12/15 06:39:52;;;;;;;43.35;22.45;;;;;;;;;;5081336;28;20250;-84
2022/12/15 06:42:32;;;;;;;45.25;24.52;;;;;;;;;;5080193;28;20193;-86
2022/12/15 06:45:07;;;;;;;37.80;18.52;;;;;;;;;;5090276;28;20206;-85
2022/12/15 06:47:40;;;;;;;41.70;20.75;;;;;;;;;;5088725;28;20265;-85
2022/12/15 06:50:07;;;;;;;34.78;19.55;;;;;;;;;;5092395;28;20210;-86
2022/12/15 06:52:38;;;;;;;47.47;22.35;;;;;;;;;;5087971;28;20210;-86
2022/12/15 06:55:13;;;;;;;53.55;26.23;;;;;;;;;;5083243;28;20622;-87
2022/12/15 06:57:40;;;;;;;54.58;22.40;;;;;;;;;;5087682;28;20201;-86
2022/12/15 07:00:11;;;;;;;33.95;18.92;;;;;;;;;;5088050;28;20199;-86
2022/12/15 07:02:39;;;;;;;35.58;18.80;;;;;;;;;;5083892;28;20206;-85
2022/12/15 07:05:08;;;;;;;38.55;19.05;;;;;;;;;;5084306;28;20263;-87
2022/12/15 07:07:35;;;;;;;42.22;20.88;;;;;;;;;;5083941;28;20368;-86
2022/12/15 07:10:02;;;;;;;40.78;22.63;;;;;;;;;;5087403;28;20211;-85
2022/12/15 07:12:31;;;;;;;43.63;22.98;;;;;;;;;;5093936;28;20206;-86
2022/12/15 07:15:01;;;;;;;40.20;19.92;;;;;;;;;;5095822;28;20217;-85
2022/12/15 07:17:29;;;;;;;42.00;20.27;;;;;;;;;;5089107;28;20278;-87
2022/12/15 07:19:56;;;;;;;44.35;20.50;;;;;;;;;;5090068;28;20233;-84
2022/12/15 07:22:29;;;;;;;40.60;20.63;;;;;;;;;;5089310;28;20202;-85
2022/12/15 07:24:56;;;;;;;47.20;21.10;;;;;;;;;;5084902;28;20669;-86
2022/12/15 07:27:24;;;;;;;39.95;20.23;;;;;;;;;;5085841;28;20242;-85
2022/12/15 07:29:52;;;;;;;49.83;23.38;;;;;;;;;;5086290;28;20283;-85
2022/12/15 07:32:20;;;;;;;42.83;19.02;;;;;;;;;;5085573;28;20202;-85
2022/12/15 07:34:47;;;;;;;43.65;22.35;;;;;;;;;;5087069;28;20222;-85
2022/12/15 07:37:17;;;;;;;38.35;21.52;;;;;;;;;;5087171;28;20262;-86
2022/12/15 07:39:44;;;;;;;34.40;19.90;;;;;;;;;;5090025;28;20251;-86
2022/12/15 07:42:11;;;;;;;43.67;20.50;;;;;;;;;;5100156;28;20190;-85
2022/12/15 07:47:40;;;;;;;42.45;19.05;;;;;;;;;;5092620;28;20218;-86
2022/12/15 08:00:58;;;;;;;37.03;18.60;;;-8.20;99.90;;;;;;5220617;22;20230;-86
2022/12/15 08:04:31;;;;;;;;;;;;;;;;;;;;;
2022/12/15 08:07:38;;;;;;;44.30;17.88;;;-8.10;1.00;;;;;;4969343;28;20232;-87
2022/12/15 08:13:54;;;;;;;35.83;20.33;;;-7.70;1.00;;;;;;5048723;22;20322;-86
2022/12/15 08:16:21;;;;;;;36.03;18.40;;;-7.60;1.00;;;;;;5125374;28;20314;-86
2022/12/15 08:18:48;;;;;;;33.30;18.83;;;;;;;;;;5125808;28;20269;-86
2022/12/15 08:21:15;;;;;;;35.78;20.33;;;-8.00;19.50;;;;;;5125928;28;20555;-86
2022/12/15 08:23:42;;;;;;;44.05;21.00;;;;;;;;;;5115019;28;20217;-85
2022/12/15 08:26:12;;;;;;;36.95;19.98;;;-7.80;72.30;;;;;;5105360;28;20206;-85
2022/12/15 08:28:40;;;;;;;47.58;21.90;;;-7.70;1.00;;;;;;5109244;28;20260;-85
2022/12/15 08:31:10;;;;;;;29.52;16.83;;;-7.60;1.00;;;;;;5111130;28;20201;-85
2022/12/15 08:33:38;;;;;;;37.90;20.42;;;-7.60;99.90;;;;;;5114136;28;20241;-85
2022/12/15 08:36:07;;;;;;;39.40;20.67;;;-7.70;99.90;;;;;;5118960;28;20197;-85
2022/12/15 08:38:37;;;;;;;37.50;19.90;;;-7.90;1.00;;;;;;5114730;28;20197;-85
2022/12/15 08:41:08;;;;;;;34.92;19.30;;;-7.80;1.00;;;;;;5107248;28;20235;-85
2022/12/15 08:43:35;;;;;;;38.00;18.10;;;-7.70;99.90;;;;;;5105641;28;20230;-85
2022/12/15 08:46:01;;;;;;;52.75;21.98;;;-7.70;99.90;;;;;;5105475;28;20273;-86
2022/12/15 08:48:30;;;;;;;41.95;20.50;;;-7.90;99.90;;;;;;5105037;28;20237;-85
2022/12/15 08:50:57;;;;;;;44.20;22.17;;;-7.70;31.70;;;;;;5105051;28;20202;-85
2022/12/15 08:53:25;;;;;;;38.70;19.77;;;;;;;;;;5104009;28;20232;-85
2022/12/15 08:55:52;;;;;;;50.40;24.25;;;-6.90;1.00;;;;;;5113085;28;20249;-86
2022/12/15 08:58:19;;;;;;;40.97;19.50;;;-7.50;99.90;;;;;;5114321;28;20261;-83
2022/12/15 09:00:46;;;;;;;40.55;21.13;;;-7.40;1.00;;;;;;5118171;28;20190;-85
2022/12/15 09:03:13;;;;;;;33.92;19.83;;;;;;;;;;5117930;28;20260;-84
2022/12/15 09:05:42;;;;;;;45.15;22.67;;;-7.10;99.90;;;;;;5118567;28;20212;-85
2022/12/15 09:08:09;;;;;;;35.65;17.80;;;;;;;;;;5115461;28;20259;-86
2022/12/15 09:10:40;;;;;;;33.70;17.65;;;-7.00;99.90;;;;;;5108392;28;20259;-85
2022/12/15 09:13:07;;;;;;;36.92;18.70;;;;;;;;;;5106891;28;20249;-84
2022/12/15 09:15:35;;;;;;;31.85;18.10;;;;;;;;;;5105578;28;20188;-85
2022/12/15 09:18:02;;;;;;;29.50;17.13;;;-6.80;80.50;;;;;;5106190;28;20194;-83
2022/12/15 09:20:29;;;;;;;37.05;17.73;;;;;;;;;;5108075;28;20212;-85
2022/12/15 09:22:59;;;;;;;38.95;21.33;;;-6.60;1.00;;;;;;5110441;28;20717;-85
2022/12/15 09:25:26;;;;;;;40.35;20.67;;;;;;;;;;5106389;28;20300;-86
2022/12/15 09:27:53;;;;;;;39.25;19.75;;;;;;;;;;5104499;28;20238;-86
2022/12/15 09:30:21;;;;;;;37.45;19.35;;;;;;;;;;5109403;28;20221;-85
2022/12/15 09:32:48;;;;;;;50.05;21.90;;;-6.60;1.00;;;;;;5115285;28;20227;-85
2022/12/15 09:35:16;;;;;;;38.70;17.42;;;-6.20;1.00;;;;;;5116506;28;20281;-83
2022/12/15 09:37:43;;;;;;;42.88;19.85;;;;;;;;;;5113861;28;20265;-85
2022/12/15 09:40:13;;;;;;;35.33;19.67;;;-6.40;1.00;;;;;;5110809;28;20273;-86
2022/12/15 09:42:41;;;;;;;38.92;21.30;;;;;;;;;;5113055;28;20218;-85
2022/12/15 09:45:15;;;;;;;46.90;21.00;;;-6.40;42.50;;;;;;5116486;28;20205;-86
2022/12/15 09:47:49;;;;;;;39.70;20.92;;;-6.00;50.60;;;;;;5112799;28;20241;-85
2022/12/15 09:50:19;;;;;;;42.00;21.75;;;-6.30;97.80;;;;;;5107364;28;20254;-85
2022/12/15 09:52:50;;;;;;;40.83;21.58;;;-6.40;99.90;;;;;;5103798;28;20370;-85
2022/12/15 09:55:22;;;;;;;37.58;21.52;;;-6.50;99.90;;;;;;5106535;28;20289;-85
2022/12/15 09:57:53;;;;;;;49.08;23.58;;;-6.20;74.40;;;;;;5113716;28;20281;-85
2022/12/15 10:00:24;;;;;;;41.63;21.45;;;-5.90;29.80;;;;;;5114095;28;20254;-83
2022/12/15 10:03:13;;;;;;;38.65;21.58;;;-5.90;99.90;;;;;;5103501;28;20247;-85
2022/12/15 10:05:57;;;;;;;38.25;22.42;;;-5.90;11.90;;;;;;5103704;28;20229;-84
2022/12/15 10:08:28;;;;;;;43.58;22.15;;;-5.80;17.90;;;;;;5105179;28;20213;-82
2022/12/15 10:10:59;;;;;;;37.67;20.42;;;-5.80;1.00;;;;;;5103788;28;20251;-86
2022/12/15 10:13:35;;;;;;;35.25;19.55;;;-5.70;1.00;;;;;;5109494;28;20233;-85
2022/12/15 10:16:05;;;;;;;46.60;21.08;;;-5.50;1.00;;;;;;5109413;28;20193;-86
2022/12/15 10:18:39;;;;;;;39.20;21.25;;;-5.30;1.00;;;;;;5114062;28;20205;-85
2022/12/15 10:21:13;;;;;;;40.88;21.02;;;-5.20;1.00;;;;;;5114042;28;20202;-84
2022/12/15 10:23:40;;;;;;;40.33;19.80;;;;;;;;;;5105137;28;20229;-85
2022/12/15 10:26:20;;;;;;;38.08;19.45;;;-5.20;1.00;;;;;;5103723;28;20221;-85
2022/12/15 10:29:01;;;;;;;44.53;19.80;;;-5.00;99.90;;;;;;5102692;28;20214;-85
2022/12/15 10:31:38;;;;;;;47.67;23.25;;;-4.90;99.90;;;;;;5101619;28;20190;-84
2022/12/15 10:34:11;;;;;;;37.50;20.40;;;-4.80;99.90;;;;;;5103447;28;20596;-84
2022/12/15 10:36:37;;;;;;;38.83;20.58;;;-4.50;99.90;;;;;;5114277;28;20190;-84
2022/12/15 10:39:04;;;;;;;35.50;20.85;;;-4.80;99.90;;;;;;5116376;28;20193;-83
2022/12/15 10:41:33;;;;;;;41.55;20.52;;;;;;;;;;5112163;28;20201;-84
2022/12/15 10:44:21;;;;;;;32.65;21.80;;;-5.10;1.00;;;;;;5107809;28;20256;-84
2022/12/15 10:46:55;;;;;;;37.70;20.75;;;-4.80;1.00;;;;;;5113140;28;20293;-85
2022/12/15 10:49:24;;;;;;;40.70;20.60;;;-4.80;1.00;;;;;;5116431;28;20224;-83
2022/12/15 10:51:56;;;;;;;36.15;20.08;;;-4.10;1.00;;;;;;5111914;28;20198;-84
2022/12/15 10:54:23;;;;;;;42.80;24.58;;;;;;;;;;5114077;28;20245;-86
2022/12/15 10:56:53;;;;;;;39.90;23.25;;;-4.70;99.90;;;;;;5116636;28;20256;-82
2022/12/15 10:59:25;;;;;;;40.97;21.77;;;-4.50;99.90;;;;;;5116219;28;20214;-86
2022/12/15 11:01:53;;;;;;;45.22;23.95;;;;;;;;;;5105788;28;20304;-84
2022/12/15 11:04:27;;;;;;;45.50;24.65;;;-4.40;99.90;;;;;;5103844;28;20249;-85
2022/12/15 11:06:57;;;;;;;39.03;21.40;;;-4.30;1.00;;;;;;5103355;28;20204;-84
2022/12/15 11:09:32;;;;;;;38.30;21.17;;;-4.50;1.00;;;;;;5103713;28;20214;-86
2022/12/15 11:14:47;;;;;;;51.80;26.58;;;-4.50;1.00;;;;;;5112707;28;20232;-85
2022/12/15 11:17:19;;;;;;;41.22;23.25;;;-4.20;1.00;;;;;;5108669;28;20209;-86
2022/12/15 11:19:53;;;;;;;49.28;28.52;;;-4.10;1.00;;;;;;5105979;28;20208;-85
2022/12/15 11:22:26;;;;;;;42.15;22.98;;;-3.20;1.00;;;;;;5107017;28;20198;-85
2022/12/15 11:24:56;;;;;;;46.13;23.67;;;-4.10;1.00;;;;;;5111129;28;20186;-83
2022/12/15 11:27:30;;;;;;;41.40;21.40;;;-4.00;1.00;;;;;;5110722;28;20197;-85
2022/12/15 11:30:10;;;;;;;52.03;23.98;;;-4.20;1.00;;;;;;5109697;28;20270;-85
2022/12/15 11:32:58;;;;;;;50.15;23.05;;;-3.90;1.00;;;;;;5111036;28;20190;-85
2022/12/15 11:35:30;;;;;;;42.40;23.40;;;-3.80;1.00;;;;;;5110868;28;20198;-85
2022/12/15 11:38:04;;;;;;;48.40;26.15;;;-3.90;1.00;;;;;;5112232;28;20207;-85
2022/12/15 11:40:38;;;;;;;45.40;22.88;;;-3.70;99.90;;;;;;5111920;28;20194;-85
2022/12/15 11:43:35;;;;;;;41.15;23.25;;;-3.60;99.90;;;;;;5113295;28;20290;-85
2022/12/15 11:46:35;;;;;;;35.35;21.33;;;-3.70;99.90;;;;;;5112174;28;20202;-85
2022/12/15 11:49:28;;;;;;;35.97;20.05;;;-3.40;1.00;;;;;;5057573;28;20289;-84
2022/12/15 11:52:03;;;;;;;37.65;23.98;;;-3.60;1.00;;;;;;5116320;28;20202;-84
2022/12/15 11:54:37;;;;;;;52.45;25.33;;;-3.70;1.00;;;;;;5116047;28;20225;-84
2022/12/15 11:57:32;;;;;;;44.42;22.63;;;-3.30;1.00;;;;;;5117662;28;20210;-83
2022/12/15 12:00:09;;;;;;;39.58;24.55;;;-1.80;99.90;;;;;;5116675;28;20205;-83
2022/12/15 12:02:58;;;;;;;48.95;25.58;;;-3.30;99.90;;;;;;5117571;28;20236;-84
2022/12/15 12:05:52;;;;;;;41.83;22.75;;;-3.40;99.90;;;;;;5117406;28;20198;-86
2022/12/15 12:08:41;;;;;;;42.50;22.60;;;-3.20;1.00;;;;;;5117117;28;20222;-83
2022/12/15 12:11:12;;;;;;;42.28;23.80;;;-2.90;99.90;;;;;;5117975;28;20190;-85
2022/12/15 12:13:50;;;;;;;36.92;24.65;;;-3.20;99.90;;;;;;5116870;28;20221;-84
2022/12/15 12:16:33;;;;;;;41.78;22.17;;;-2.80;99.90;;;;;;5116660;28;20190;-85
2022/12/15 12:19:06;;;;;;;40.45;23.77;;;-3.00;99.90;;;;;;5117173;28;20209;-87
2022/12/15 12:21:42;;;;;;;42.00;23.90;;;-2.90;99.90;;;;;;5116038;28;20219;-86
2022/12/15 12:24:15;;;;;;;40.42;21.95;;;-2.80;99.90;;;;;;5116598;28;20218;-84
2022/12/15 12:26:45;;;;;;;44.67;24.25;;;-2.90;99.90;;;;;;5114712;28;20221;-85
2022/12/15 12:29:18;;;;;;;45.63;24.90;;;-3.00;99.90;;;;;;5107785;28;20210;-86
2022/12/15 12:31:54;;;;;;;50.60;26.10;;;-3.00;1.00;;;;;;5108725;28;20681;-85
2022/12/15 12:34:29;;;;;;;43.50;23.42;;;-2.90;1.00;;;;;;5107178;28;20600;-85
2022/12/15 12:37:09;;;;;;;45.00;22.77;;;-2.80;1.00;;;;;;5107572;28;20194;-85
2022/12/15 12:39:36;;;;;;;45.13;24.58;;;;;;;;;;5111140;28;20255;-86
2022/12/15 12:42:07;;;;;;;44.83;23.45;;;-2.10;1.00;;;;;;5111160;28;20206;-83
2022/12/15 12:44:37;;;;;;;46.42;22.08;;;-2.80;1.00;;;;;;5107840;28;20219;-85
2022/12/15 12:47:13;;;;;;;42.50;22.17;;;-2.70;1.00;;;;;;5107496;28;20556;-86
2022/12/15 12:49:46;;;;;;;36.70;20.70;;;-2.40;1.00;;;;;;5110169;28;20287;-85
2022/12/15 12:52:22;;;;;;;40.40;22.52;;;-2.70;1.00;;;;;;5117467;28;20221;-85
2022/12/15 12:54:57;;;;;;;45.28;22.33;;;-2.80;1.00;;;;;;5115897;28;20211;-86
2022/12/15 12:57:32;;;;;;;39.28;22.05;;;-2.80;1.00;;;;;;5108485;28;20187;-87
2022/12/15 13:00:02;;;;;;;43.50;21.80;;;-2.70;1.00;;;;;;5114944;28;20206;-86
2022/12/15 13:03:16;;;;;;;38.70;21.65;;;-2.60;1.00;;;;;;5119572;28;20229;-84
2022/12/15 13:05:49;;;;;;;37.35;20.00;;;-2.50;1.00;;;;;;5073389;28;20218;-85
2022/12/15 13:08:51;;;;;;;38.10;21.50;;;-2.60;1.00;;;;;;5107027;28;20209;-86
2022/12/15 13:11:55;;;;;;;36.47;20.48;;;-2.60;1.00;;;;;;5099999;28;20545;-84
2022/12/15 13:14:45;;;;;;;40.40;20.73;;;-2.60;1.00;;;;;;5105464;28;20257;-86
2022/12/15 13:17:16;;;;;;;36.58;20.80;;;-2.70;1.00;;;;;;5106651;28;20226;-88
2022/12/15 13:20:29;;;;;;;41.63;22.30;;;-2.70;1.00;;;;;;5108476;28;20195;-86
2022/12/15 13:23:34;;;;;;;33.55;20.20;;;-2.60;1.00;;;;;;5106741;28;20224;-85
2022/12/15 13:26:14;;;;;;;41.30;21.00;;;-2.60;1.00;;;;;;5105311;28;20244;-86
2022/12/15 13:28:45;;;;;;;40.50;22.10;;;-2.70;1.00;;;;;;5105119;28;20285;-85
2022/12/15 13:31:27;;;;;;;36.20;19.92;;;-2.60;1.00;;;;;;5107113;28;20286;-85
2022/12/15 13:34:09;;;;;;;39.92;22.50;;;-2.90;1.00;;;;;;5105293;28;20212;-84
2022/12/15 13:36:54;;;;;;;34.85;19.45;;;-2.60;1.00;;;;;;5103163;28;20245;-86
2022/12/15 13:39:54;;;;;;;39.20;22.10;;;-2.60;1.00;;;;;;5103124;28;20212;-84
2022/12/15 13:42:35;;;;;;;38.15;21.58;;;-2.50;1.00;;;;;;5049794;28;20223;-86
2022/12/15 13:45:38;;;;;;;34.17;18.52;;;-2.60;11.60;;;;;;5109909;28;20234;-85
2022/12/15 13:48:28;;;;;;;40.97;21.48;;;-2.50;43.30;;;;;;5118571;28;20191;-85
2022/12/15 13:51:18;;;;;;;36.05;22.30;;;-2.40;62.60;;;;;;5108374;28;20195;-85
2022/12/15 13:53:48;;;;;;;38.10;21.85;;;-2.40;35.10;;;;;;5102066;28;20210;-82
2022/12/15 13:56:45;;;;;;;41.42;23.83;;;-2.40;1.00;;;;;;5117148;28;20203;-85
2022/12/15 13:59:20;;;;;;;37.42;22.10;;;-2.40;6.90;;;;;;5116718;28;20195;-84
2022/12/15 14:01:52;;;;;;;34.28;21.15;;;-2.40;62.50;;;;;;5117599;28;20178;-86
2022/12/15 14:04:20;;;;;;;38.08;20.08;;;-2.40;94.80;;;;;;5116062;28;20215;-83
2022/12/15 14:06:49;;;;;;;39.90;22.15;;;-2.30;99.90;;;;;;5115739;28;20190;-84
2022/12/15 14:09:21;;;;;;;39.95;21.52;;;-2.60;99.90;;;;;;5112154;28;20258;-85
2022/12/15 14:11:50;;;;;;;40.08;21.55;;;-2.70;99.90;;;;;;5109511;28;20709;-84
2022/12/15 15:20:33;;;;;;;36.10;21.95;;;-2.90;1.00;;;;;;5148608;22;20229;-85
2022/12/15 15:23:19;;;;;;;34.20;20.73;;;-3.00;99.90;;;;;;5127111;28;20261;-86
2022/12/15 15:25:51;;;;;;;39.72;21.70;;;-2.90;99.90;;;;;;5127928;28;20273;-85
2022/12/15 15:28:24;;;;;;;39.90;21.13;;;-2.90;99.90;;;;;;5125968;28;20213;-86
2022/12/15 15:30:53;;;;;;;43.88;22.70;;;-2.90;1.00;;;;;;5108712;28;20277;-86
2022/12/15 15:33:21;;;;;;;38.42;20.77;;;;;;;;;;5107618;28;20199;-86
2022/12/15 15:35:53;;;;;;;41.75;23.58;;;-2.90;99.90;;;;;;5107413;28;20294;-86
2022/12/15 15:38:25;;;;;;;38.92;21.75;;;-3.00;99.90;;;;;;5112726;28;20191;-85
2022/12/15 15:40:54;;;;;;;40.53;22.98;;;-3.00;1.00;;;;;;5109406;28;20252;-86
2022/12/15 15:43:22;;;;;;;40.90;23.90;;;;;;;;;;5111762;28;20212;-86
2022/12/15 15:45:52;;;;;;;37.88;22.10;;;-2.90;99.90;;;;;;5117865;28;20193;-84
2022/12/15 15:48:24;;;;;;;43.50;21.90;;;-2.90;99.90;;;;;;5116851;28;20199;-85
2022/12/15 15:50:53;;;;;;;42.28;22.75;;;;;;;;;;5121180;28;20215;-83
2022/12/15 15:53:23;;;;;;;38.13;25.10;;;-3.10;99.90;;;;;;5119271;28;20222;-86
2022/12/15 15:55:54;;;;;;;44.63;25.13;;;-3.20;99.90;;;;;;5119112;28;20225;-85
2022/12/15 15:58:26;;;;;;;39.17;24.20;;;-3.20;99.90;;;;;;5112069;28;20220;-84
2022/12/15 16:00:53;;;;;;;42.25;22.88;;;;;;;;;;5108894;28;20179;-84
2022/12/15 16:03:20;;;;;;;37.05;22.73;;;;;;;;;;5113197;28;20203;-84
2022/12/15 16:05:48;;;;;;;35.20;24.17;;;;;;;;;;5115827;28;20646;-86
2022/12/15 16:08:18;;;;;;;37.78;21.85;;;-3.10;1.00;;;;;;5115372;28;20198;-86
2022/12/15 16:10:48;;;;;;;41.72;22.13;;;-3.20;1.00;;;;;;5116497;28;20223;-84
2022/12/15 16:13:21;;;;;;;34.22;20.67;;;-3.00;1.00;;;;;;5116168;28;20196;-86
2022/12/15 16:15:49;;;;;;;42.97;21.88;;;;;;;;;;5110421;28;20196;-86
2022/12/15 16:18:21;;;;;;;41.92;24.13;;;;;;;;;;5106605;28;20233;-86
2022/12/15 16:20:51;;;;;;;45.97;23.30;;;-2.80;67.60;;;;;;5108460;28;20182;-86
2022/12/15 16:23:23;;;;;;;45.70;23.38;;;-2.90;99.90;;;;;;5109413;28;20619;-85
2022/12/15 16:25:52;;;;;;;40.17;24.77;;;-3.00;99.90;;;;;;5114013;28;20250;-86
2022/12/15 16:28:20;;;;;;;40.25;22.73;;;-3.00;1.00;;;;;;5111483;28;20209;-86
2022/12/15 16:30:48;;;;;;;33.70;20.65;;;-2.60;1.00;;;;;;5104063;28;20553;-87
2022/12/15 16:33:15;;;;;;;41.00;23.42;;;-2.60;1.00;;;;;;5107084;28;20280;-86
2022/12/15 16:35:43;;;;;;;42.08;20.95;;;-2.60;99.90;;;;;;5108012;28;20238;-83
2022/12/15 16:38:15;;;;;;;37.40;21.95;;;-2.80;99.90;;;;;;5103939;28;20239;-85
2022/12/15 16:40:44;;;;;;;35.08;20.88;;;-2.90;1.00;;;;;;5105956;28;20247;-85
2022/12/15 16:43:15;;;;;;;37.17;21.67;;;-3.00;1.00;;;;;;5105478;28;20297;-86
2022/12/15 16:45:44;;;;;;;36.00;21.00;;;-3.10;1.00;;;;;;5106224;28;20227;-85
2022/12/15 16:48:11;;;;;;;42.63;22.30;;;-2.80;96.00;;;;;;5106328;28;20203;-84
2022/12/15 16:50:40;;;;;;;41.85;22.92;;;-2.90;99.90;;;;;;5109032;28;20267;-85
2022/12/15 16:53:15;;;;;;;38.15;20.60;;;-3.10;1.00;;;;;;5107657;28;20262;-86
2022/12/15 16:55:44;;;;;;;45.72;24.58;;;-2.90;1.00;;;;;;5106207;28;20182;-85
2022/12/15 16:58:14;;;;;;;36.72;22.35;;;-3.10;1.00;;;;;;5107441;28;20203;-84
2022/12/15 17:00:42;;;;;;;40.42;23.48;;;;;;;;;;5107232;28;20190;-85
2022/12/15 17:03:12;;;;;;;41.88;22.13;;;-2.90;1.00;;;;;;5108238;28;20202;-86
2022/12/15 17:05:40;;;;;;;40.55;22.85;;;-3.00;1.00;;;;;;5108492;28;20222;-85
2022/12/15 17:08:08;;;;;;;42.95;23.08;;;;;;;;;;5107524;28;20237;-86
2022/12/15 17:10:35;;;;;;;54.40;27.75;;;;;;;;;;5113588;28;20247;-86
2022/12/15 17:13:13;;;;;;;55.55;30.30;;;-3.00;87.70;;;;;;5118751;28;20220;-86
2022/12/15 17:15:40;;;;;;;47.28;26.48;;;;;;;;;;5113013;28;20191;-85
2022/12/15 17:18:07;;;;;;;49.63;30.35;;;-3.00;99.90;;;;;;5103574;28;20211;-85
2022/12/15 17:20:34;;;;;;;60.55;30.67;;;;;;;;;;5106131;28;20194;-84
2022/12/15 17:23:04;;;;;;;49.13;25.63;;;-3.10;1.00;;;;;;5106366;28;20206;-84